sensor_id;sensor_type;location;lat;lon;timestamp;P1;durP1;ratioP1;P2;durP2;ratioP2
50417;SDS011;36346;48.280;14.292;2022-09-24T00:01:38;9.48;;;9.48;;
50417;SDS011;36346;48.280;14.292;2022-09-24T00:04:06;9.24;;;9.24;;
50417;SDS011;36346;48.280;14.292;2022-09-24T00:06:36;9.36;;;9.36;;
50417;SDS011;36346;48.280;14.292;2022-09-24T00:09:04;8.75;;;8.75;;
50417;SDS011;36346;48.280;14.292;2022-09-24T00:11:32;8.95;;;8.93;;
50417;SDS011;36346;48.280;14.292;2022-09-24T00:13:59;8.44;;;8.41;;
50417;SDS011;36346;48.280;14.292;2022-09-24T00:16:28;8.35;;;8.35;;
50417;SDS011;36346;48.280;14.292;2022-09-24T00:18:58;7.86;;;7.86;;
50417;SDS011;36346;48.280;14.292;2022-09-24T00:21:27;7.79;;;7.79;;
50417;SDS011;36346;48.280;14.292;2022-09-24T00:23:57;7.47;;;7.47;;
50417;SDS011;36346;48.280;14.292;2022-09-24T00:26:25;7.75;;;7.75;;
50417;SDS011;36346;48.280;14.292;2022-09-24T00:29:19;8.09;;;8.09;;
50417;SDS011;36346;48.280;14.292;2022-09-24T00:32:12;7.78;;;7.78;;
50417;SDS011;36346;48.280;14.292;2022-09-24T00:35:05;8.02;;;8.02;;
50417;SDS011;36346;48.280;14.292;2022-09-24T00:37:58;7.91;;;7.91;;
50417;SDS011;36346;48.280;14.292;2022-09-24T00:40:51;8.04;;;8.04;;
50417;SDS011;36346;48.280;14.292;2022-09-24T00:43:45;8.04;;;8.04;;
50417;SDS011;36346;48.280;14.292;2022-09-24T00:46:41;7.68;;;7.68;;
50417;SDS011;36346;48.280;14.292;2022-09-24T00:49:35;7.47;;;7.47;;
50417;SDS011;36346;48.280;14.292;2022-09-24T00:52:29;7.50;;;7.50;;
50417;SDS011;36346;48.280;14.292;2022-09-24T00:55:22;7.46;;;7.46;;
50417;SDS011;36346;48.280;14.292;2022-09-24T00:58:16;7.45;;;7.45;;
50417;SDS011;36346;48.280;14.292;2022-09-24T01:01:10;7.48;;;7.48;;
50417;SDS011;36346;48.280;14.292;2022-09-24T01:04:03;7.37;;;7.37;;
50417;SDS011;36346;48.280;14.292;2022-09-24T01:06:58;6.92;;;6.92;;
50417;SDS011;36346;48.280;14.292;2022-09-24T01:09:51;6.83;;;6.83;;
50417;SDS011;36346;48.280;14.292;2022-09-24T01:12:50;6.63;;;6.63;;
50417;SDS011;36346;48.280;14.292;2022-09-24T01:15:52;6.41;;;6.41;;
50417;SDS011;36346;48.280;14.292;2022-09-24T01:18:28;6.55;;;6.55;;
50417;SDS011;36346;48.280;14.292;2022-09-24T01:21:06;6.27;;;6.27;;
50417;SDS011;36346;48.280;14.292;2022-09-24T01:31:52;7.24;;;7.24;;
50417;SDS011;36346;48.280;14.292;2022-09-24T01:34:24;7.14;;;7.14;;
50417;SDS011;36346;48.280;14.292;2022-09-24T01:36:55;6.68;;;6.68;;
50417;SDS011;36346;48.280;14.292;2022-09-24T01:39:26;7.09;;;7.09;;
50417;SDS011;36346;48.280;14.292;2022-09-24T01:41:55;6.80;;;6.80;;
50417;SDS011;36346;48.280;14.292;2022-09-24T01:44:23;6.94;;;6.94;;
50417;SDS011;36346;48.280;14.292;2022-09-24T01:46:52;6.84;;;6.84;;
50417;SDS011;36346;48.280;14.292;2022-09-24T01:49:20;6.46;;;6.46;;
50417;SDS011;36346;48.280;14.292;2022-09-24T01:51:49;6.77;;;6.77;;
50417;SDS011;36346;48.280;14.292;2022-09-24T01:56:51;6.46;;;6.46;;
50417;SDS011;36346;48.280;14.292;2022-09-24T01:59:37;6.35;;;6.35;;
50417;SDS011;36346;48.280;14.292;2022-09-24T02:02:14;6.44;;;6.44;;
50417;SDS011;36346;48.280;14.292;2022-09-24T02:04:46;6.01;;;6.01;;
50417;SDS011;36346;48.280;14.292;2022-09-24T02:07:40;6.39;;;6.39;;
50417;SDS011;36346;48.280;14.292;2022-09-24T02:10:14;5.58;;;5.58;;
50417;SDS011;36346;48.280;14.292;2022-09-24T02:12:43;5.78;;;5.78;;
50417;SDS011;36346;48.280;14.292;2022-09-24T02:15:14;5.79;;;5.79;;
50417;SDS011;36346;48.280;14.292;2022-09-24T02:17:47;5.93;;;5.93;;
50417;SDS011;36346;48.280;14.292;2022-09-24T02:20:21;6.30;;;6.30;;
50417;SDS011;36346;48.280;14.292;2022-09-24T02:22:51;6.29;;;6.29;;
50417;SDS011;36346;48.280;14.292;2022-09-24T02:25:29;5.71;;;5.71;;
50417;SDS011;36346;48.280;14.292;2022-09-24T02:27:59;6.10;;;6.10;;
50417;SDS011;36346;48.280;14.292;2022-09-24T02:30:27;6.38;;;6.38;;
50417;SDS011;36346;48.280;14.292;2022-09-24T02:32:55;6.30;;;6.30;;
50417;SDS011;36346;48.280;14.292;2022-09-24T02:35:23;6.34;;;6.34;;
50417;SDS011;36346;48.280;14.292;2022-09-24T02:37:51;6.25;;;6.25;;
50417;SDS011;36346;48.280;14.292;2022-09-24T02:40:19;6.27;;;6.27;;
50417;SDS011;36346;48.280;14.292;2022-09-24T02:42:47;6.12;;;6.12;;
50417;SDS011;36346;48.280;14.292;2022-09-24T02:45:16;6.40;;;6.40;;
50417;SDS011;36346;48.280;14.292;2022-09-24T02:47:44;6.40;;;6.40;;
50417;SDS011;36346;48.280;14.292;2022-09-24T02:50:11;6.66;;;6.66;;
50417;SDS011;36346;48.280;14.292;2022-09-24T02:52:39;6.66;;;6.66;;
50417;SDS011;36346;48.280;14.292;2022-09-24T02:55:06;6.20;;;6.20;;
50417;SDS011;36346;48.280;14.292;2022-09-24T02:57:34;6.62;;;6.62;;
50417;SDS011;36346;48.280;14.292;2022-09-24T03:00:02;7.12;;;7.12;;
50417;SDS011;36346;48.280;14.292;2022-09-24T03:02:30;6.87;;;6.87;;
50417;SDS011;36346;48.280;14.292;2022-09-24T03:04:57;7.13;;;7.13;;
50417;SDS011;36346;48.280;14.292;2022-09-24T03:07:25;7.48;;;7.48;;
50417;SDS011;36346;48.280;14.292;2022-09-24T03:09:52;7.44;;;7.44;;
50417;SDS011;36346;48.280;14.292;2022-09-24T03:12:20;7.85;;;7.85;;
50417;SDS011;36346;48.280;14.292;2022-09-24T03:14:48;7.88;;;7.88;;
50417;SDS011;36346;48.280;14.292;2022-09-24T03:17:15;8.10;;;8.10;;
50417;SDS011;36346;48.280;14.292;2022-09-24T03:19:43;7.75;;;7.75;;
50417;SDS011;36346;48.280;14.292;2022-09-24T03:22:10;8.05;;;8.05;;
50417;SDS011;36346;48.280;14.292;2022-09-24T03:24:38;7.50;;;7.50;;
50417;SDS011;36346;48.280;14.292;2022-09-24T03:27:06;7.70;;;7.70;;
50417;SDS011;36346;48.280;14.292;2022-09-24T03:29:33;7.73;;;7.73;;
50417;SDS011;36346;48.280;14.292;2022-09-24T03:32:20;8.20;;;8.20;;
50417;SDS011;36346;48.280;14.292;2022-09-24T03:34:47;8.22;;;8.22;;
50417;SDS011;36346;48.280;14.292;2022-09-24T03:37:15;8.35;;;8.35;;
50417;SDS011;36346;48.280;14.292;2022-09-24T03:39:42;7.92;;;7.92;;
50417;SDS011;36346;48.280;14.292;2022-09-24T03:42:11;8.12;;;8.12;;
50417;SDS011;36346;48.280;14.292;2022-09-24T03:44:39;7.84;;;7.84;;
50417;SDS011;36346;48.280;14.292;2022-09-24T03:47:06;8.08;;;8.08;;
50417;SDS011;36346;48.280;14.292;2022-09-24T03:49:34;8.00;;;8.00;;
50417;SDS011;36346;48.280;14.292;2022-09-24T03:52:02;8.42;;;8.42;;
50417;SDS011;36346;48.280;14.292;2022-09-24T03:54:29;8.37;;;8.37;;
50417;SDS011;36346;48.280;14.292;2022-09-24T03:56:57;7.98;;;7.98;;
50417;SDS011;36346;48.280;14.292;2022-09-24T03:59:25;8.36;;;8.36;;
50417;SDS011;36346;48.280;14.292;2022-09-24T04:01:52;8.45;;;8.45;;
50417;SDS011;36346;48.280;14.292;2022-09-24T04:04:20;8.54;;;8.54;;
50417;SDS011;36346;48.280;14.292;2022-09-24T04:06:47;8.45;;;8.45;;
50417;SDS011;36346;48.280;14.292;2022-09-24T04:09:16;8.82;;;8.82;;
50417;SDS011;36346;48.280;14.292;2022-09-24T04:11:43;8.73;;;8.73;;
50417;SDS011;36346;48.280;14.292;2022-09-24T04:14:11;8.53;;;8.53;;
50417;SDS011;36346;48.280;14.292;2022-09-24T04:16:38;8.71;;;8.71;;
50417;SDS011;36346;48.280;14.292;2022-09-24T04:19:06;8.51;;;8.51;;
50417;SDS011;36346;48.280;14.292;2022-09-24T04:21:34;8.43;;;8.43;;
50417;SDS011;36346;48.280;14.292;2022-09-24T04:24:02;8.40;;;8.40;;
50417;SDS011;36346;48.280;14.292;2022-09-24T04:26:30;8.32;;;8.32;;
50417;SDS011;36346;48.280;14.292;2022-09-24T04:28:57;8.32;;;8.32;;
50417;SDS011;36346;48.280;14.292;2022-09-24T04:31:25;7.92;;;7.92;;
50417;SDS011;36346;48.280;14.292;2022-09-24T04:33:53;7.91;;;7.91;;
50417;SDS011;36346;48.280;14.292;2022-09-24T04:36:21;8.61;;;8.60;;
50417;SDS011;36346;48.280;14.292;2022-09-24T04:38:48;8.44;;;8.44;;
50417;SDS011;36346;48.280;14.292;2022-09-24T04:41:16;8.46;;;8.46;;
50417;SDS011;36346;48.280;14.292;2022-09-24T04:43:44;8.07;;;8.07;;
50417;SDS011;36346;48.280;14.292;2022-09-24T04:46:13;8.40;;;8.40;;
50417;SDS011;36346;48.280;14.292;2022-09-24T04:48:41;8.12;;;8.12;;
50417;SDS011;36346;48.280;14.292;2022-09-24T04:51:08;8.24;;;8.24;;
50417;SDS011;36346;48.280;14.292;2022-09-24T04:53:36;8.52;;;8.52;;
50417;SDS011;36346;48.280;14.292;2022-09-24T04:56:04;8.75;;;8.75;;
50417;SDS011;36346;48.280;14.292;2022-09-24T04:58:33;8.51;;;8.51;;
50417;SDS011;36346;48.280;14.292;2022-09-24T05:01:01;8.74;;;8.74;;
50417;SDS011;36346;48.280;14.292;2022-09-24T05:03:32;8.01;;;8.01;;
50417;SDS011;36346;48.280;14.292;2022-09-24T05:05:59;8.15;;;8.15;;
50417;SDS011;36346;48.280;14.292;2022-09-24T05:08:28;8.17;;;8.17;;
50417;SDS011;36346;48.280;14.292;2022-09-24T05:10:55;8.10;;;8.10;;
50417;SDS011;36346;48.280;14.292;2022-09-24T05:13:23;8.20;;;8.20;;
50417;SDS011;36346;48.280;14.292;2022-09-24T05:15:51;8.22;;;8.22;;
50417;SDS011;36346;48.280;14.292;2022-09-24T05:18:18;8.37;;;8.37;;
50417;SDS011;36346;48.280;14.292;2022-09-24T05:20:46;8.55;;;8.55;;
50417;SDS011;36346;48.280;14.292;2022-09-24T05:23:14;8.58;;;8.58;;
50417;SDS011;36346;48.280;14.292;2022-09-24T05:25:41;9.09;;;9.09;;
50417;SDS011;36346;48.280;14.292;2022-09-24T05:28:27;8.77;;;8.77;;
50417;SDS011;36346;48.280;14.292;2022-09-24T05:30:55;9.49;;;9.49;;
50417;SDS011;36346;48.280;14.292;2022-09-24T05:33:24;9.48;;;9.48;;
50417;SDS011;36346;48.280;14.292;2022-09-24T05:35:52;9.58;;;9.58;;
50417;SDS011;36346;48.280;14.292;2022-09-24T05:38:21;10.19;;;10.19;;
50417;SDS011;36346;48.280;14.292;2022-09-24T05:40:49;11.01;;;11.01;;
50417;SDS011;36346;48.280;14.292;2022-09-24T05:43:17;11.13;;;11.13;;
50417;SDS011;36346;48.280;14.292;2022-09-24T05:45:48;10.07;;;10.07;;
50417;SDS011;36346;48.280;14.292;2022-09-24T05:48:16;9.97;;;9.97;;
50417;SDS011;36346;48.280;14.292;2022-09-24T05:50:44;9.67;;;9.67;;
50417;SDS011;36346;48.280;14.292;2022-09-24T05:53:11;9.14;;;9.14;;
50417;SDS011;36346;48.280;14.292;2022-09-24T05:55:41;9.34;;;9.34;;
50417;SDS011;36346;48.280;14.292;2022-09-24T05:58:09;8.51;;;8.51;;
50417;SDS011;36346;48.280;14.292;2022-09-24T06:00:37;9.12;;;9.12;;
50417;SDS011;36346;48.280;14.292;2022-09-24T06:03:05;8.64;;;8.64;;
50417;SDS011;36346;48.280;14.292;2022-09-24T06:05:34;8.85;;;8.84;;
50417;SDS011;36346;48.280;14.292;2022-09-24T06:08:02;8.82;;;8.82;;
50417;SDS011;36346;48.280;14.292;2022-09-24T06:10:30;9.10;;;9.10;;
50417;SDS011;36346;48.280;14.292;2022-09-24T06:12:57;9.14;;;9.14;;
50417;SDS011;36346;48.280;14.292;2022-09-24T06:15:25;9.05;;;9.05;;
50417;SDS011;36346;48.280;14.292;2022-09-24T06:17:53;9.41;;;9.41;;
50417;SDS011;36346;48.280;14.292;2022-09-24T06:20:21;9.95;;;9.95;;
50417;SDS011;36346;48.280;14.292;2022-09-24T06:22:49;9.76;;;9.76;;
50417;SDS011;36346;48.280;14.292;2022-09-24T06:25:17;10.36;;;10.35;;
50417;SDS011;36346;48.280;14.292;2022-09-24T06:27:44;11.00;;;11.00;;
50417;SDS011;36346;48.280;14.292;2022-09-24T06:30:19;11.33;;;11.33;;
50417;SDS011;36346;48.280;14.292;2022-09-24T06:32:47;11.98;;;11.98;;
50417;SDS011;36346;48.280;14.292;2022-09-24T06:35:14;13.16;;;13.16;;
50417;SDS011;36346;48.280;14.292;2022-09-24T06:37:42;12.43;;;12.43;;
50417;SDS011;36346;48.280;14.292;2022-09-24T06:40:10;12.32;;;12.32;;
50417;SDS011;36346;48.280;14.292;2022-09-24T06:42:37;11.54;;;11.54;;
50417;SDS011;36346;48.280;14.292;2022-09-24T06:45:05;12.14;;;12.14;;
50417;SDS011;36346;48.280;14.292;2022-09-24T06:47:33;12.39;;;12.39;;
50417;SDS011;36346;48.280;14.292;2022-09-24T06:50:01;12.58;;;12.58;;
50417;SDS011;36346;48.280;14.292;2022-09-24T06:52:28;11.88;;;11.88;;
50417;SDS011;36346;48.280;14.292;2022-09-24T06:54:56;12.43;;;12.43;;
50417;SDS011;36346;48.280;14.292;2022-09-24T06:57:24;12.97;;;12.97;;
50417;SDS011;36346;48.280;14.292;2022-09-24T06:59:55;12.91;;;12.91;;
50417;SDS011;36346;48.280;14.292;2022-09-24T07:02:23;13.59;;;13.59;;
50417;SDS011;36346;48.280;14.292;2022-09-24T07:04:51;13.08;;;13.08;;
50417;SDS011;36346;48.280;14.292;2022-09-24T07:07:19;13.38;;;13.34;;
50417;SDS011;36346;48.280;14.292;2022-09-24T07:09:56;13.70;;;13.68;;
50417;SDS011;36346;48.280;14.292;2022-09-24T07:12:23;13.69;;;13.69;;
50417;SDS011;36346;48.280;14.292;2022-09-24T07:14:51;13.78;;;13.78;;
50417;SDS011;36346;48.280;14.292;2022-09-24T07:17:19;13.76;;;13.76;;
50417;SDS011;36346;48.280;14.292;2022-09-24T07:19:46;14.20;;;14.20;;
50417;SDS011;36346;48.280;14.292;2022-09-24T07:22:14;13.85;;;13.85;;
50417;SDS011;36346;48.280;14.292;2022-09-24T07:24:42;13.65;;;13.65;;
50417;SDS011;36346;48.280;14.292;2022-09-24T07:27:09;13.86;;;13.86;;
50417;SDS011;36346;48.280;14.292;2022-09-24T07:29:38;16.21;;;16.21;;
50417;SDS011;36346;48.280;14.292;2022-09-24T07:32:06;16.55;;;16.54;;
50417;SDS011;36346;48.280;14.292;2022-09-24T07:34:34;16.54;;;16.54;;
50417;SDS011;36346;48.280;14.292;2022-09-24T07:37:01;15.82;;;15.82;;
50417;SDS011;36346;48.280;14.292;2022-09-24T07:39:29;16.41;;;16.41;;
50417;SDS011;36346;48.280;14.292;2022-09-24T07:41:57;16.27;;;16.27;;
50417;SDS011;36346;48.280;14.292;2022-09-24T07:44:27;15.88;;;15.88;;
50417;SDS011;36346;48.280;14.292;2022-09-24T07:46:55;15.47;;;15.47;;
50417;SDS011;36346;48.280;14.292;2022-09-24T07:49:24;11.91;;;11.89;;
50417;SDS011;36346;48.280;14.292;2022-09-24T07:51:51;10.60;;;10.60;;
50417;SDS011;36346;48.280;14.292;2022-09-24T07:54:20;9.56;;;9.56;;
50417;SDS011;36346;48.280;14.292;2022-09-24T07:56:48;9.59;;;9.59;;
50417;SDS011;36346;48.280;14.292;2022-09-24T07:59:15;9.12;;;9.12;;
50417;SDS011;36346;48.280;14.292;2022-09-24T08:01:43;8.55;;;8.55;;
50417;SDS011;36346;48.280;14.292;2022-09-24T08:04:11;8.02;;;8.02;;
50417;SDS011;36346;48.280;14.292;2022-09-24T08:06:39;7.55;;;7.55;;
50417;SDS011;36346;48.280;14.292;2022-09-24T08:09:14;7.32;;;7.32;;
50417;SDS011;36346;48.280;14.292;2022-09-24T08:11:43;7.11;;;7.11;;
50417;SDS011;36346;48.280;14.292;2022-09-24T08:14:11;7.36;;;7.36;;
50417;SDS011;36346;48.280;14.292;2022-09-24T08:16:38;7.99;;;7.99;;
50417;SDS011;36346;48.280;14.292;2022-09-24T08:19:08;8.62;;;8.61;;
50417;SDS011;36346;48.280;14.292;2022-09-24T08:21:40;8.69;;;8.68;;
50417;SDS011;36346;48.280;14.292;2022-09-24T08:24:07;9.02;;;9.02;;
50417;SDS011;36346;48.280;14.292;2022-09-24T08:26:35;10.33;;;10.33;;
50417;SDS011;36346;48.280;14.292;2022-09-24T08:29:03;8.67;;;8.66;;
50417;SDS011;36346;48.280;14.292;2022-09-24T08:31:30;8.62;;;8.62;;
50417;SDS011;36346;48.280;14.292;2022-09-24T08:34:00;8.38;;;8.38;;
50417;SDS011;36346;48.280;14.292;2022-09-24T08:36:28;8.02;;;8.02;;
50417;SDS011;36346;48.280;14.292;2022-09-24T08:38:56;8.80;;;8.77;;
50417;SDS011;36346;48.280;14.292;2022-09-24T08:46:44;8.55;;;8.55;;
50417;SDS011;36346;48.280;14.292;2022-09-24T08:49:38;7.67;;;7.65;;
50417;SDS011;36346;48.280;14.292;2022-09-24T08:54:49;6.86;;;6.86;;
50417;SDS011;36346;48.280;14.292;2022-09-24T08:57:19;6.92;;;6.91;;
50417;SDS011;36346;48.280;14.292;2022-09-24T08:59:49;6.99;;;6.98;;
50417;SDS011;36346;48.280;14.292;2022-09-24T09:02:34;6.63;;;6.63;;
50417;SDS011;36346;48.280;14.292;2022-09-24T09:07:44;5.28;;;5.28;;
50417;SDS011;36346;48.280;14.292;2022-09-24T09:10:19;5.40;;;5.40;;
50417;SDS011;36346;48.280;14.292;2022-09-24T09:13:06;5.38;;;5.38;;
50417;SDS011;36346;48.280;14.292;2022-09-24T09:15:48;5.37;;;5.37;;
50417;SDS011;36346;48.280;14.292;2022-09-24T09:18:29;5.34;;;5.34;;
50417;SDS011;36346;48.280;14.292;2022-09-24T09:21:03;4.98;;;4.98;;
50417;SDS011;36346;48.280;14.292;2022-09-24T09:23:39;5.15;;;5.15;;
50417;SDS011;36346;48.280;14.292;2022-09-24T09:26:13;5.55;;;5.55;;
50417;SDS011;36346;48.280;14.292;2022-09-24T09:28:41;5.93;;;5.93;;
50417;SDS011;36346;48.280;14.292;2022-09-24T09:31:20;5.74;;;5.74;;
50417;SDS011;36346;48.280;14.292;2022-09-24T09:34:10;5.71;;;5.71;;
50417;SDS011;36346;48.280;14.292;2022-09-24T09:44:27;6.27;;;6.27;;
50417;SDS011;36346;48.280;14.292;2022-09-24T09:46:59;8.50;;;8.50;;
50417;SDS011;36346;48.280;14.292;2022-09-24T09:49:34;11.32;;;11.31;;
50417;SDS011;36346;48.280;14.292;2022-09-24T09:52:10;11.67;;;11.64;;
50417;SDS011;36346;48.280;14.292;2022-09-24T09:54:41;10.49;;;10.47;;
50417;SDS011;36346;48.280;14.292;2022-09-24T09:57:17;10.81;;;10.78;;
50417;SDS011;36346;48.280;14.292;2022-09-24T09:59:50;10.72;;;10.65;;
50417;SDS011;36346;48.280;14.292;2022-09-24T10:02:32;10.32;;;10.26;;
50417;SDS011;36346;48.280;14.292;2022-09-24T10:05:02;10.63;;;10.57;;
50417;SDS011;36346;48.280;14.292;2022-09-24T10:07:31;9.86;;;9.85;;
50417;SDS011;36346;48.280;14.292;2022-09-24T10:10:18;10.15;;;10.09;;
50417;SDS011;36346;48.280;14.292;2022-09-24T10:12:46;8.96;;;8.90;;
50417;SDS011;36346;48.280;14.292;2022-09-24T10:17:42;6.07;;;6.06;;
50417;SDS011;36346;48.280;14.292;2022-09-24T10:22:45;5.27;;;5.27;;
50417;SDS011;36346;48.280;14.292;2022-09-24T10:25:22;5.30;;;5.30;;
50417;SDS011;36346;48.280;14.292;2022-09-24T10:27:53;4.98;;;4.98;;
50417;SDS011;36346;48.280;14.292;2022-09-24T10:30:50;4.84;;;4.84;;
50417;SDS011;36346;48.280;14.292;2022-09-24T10:33:20;5.33;;;5.33;;
50417;SDS011;36346;48.280;14.292;2022-09-24T10:35:49;5.32;;;5.32;;
50417;SDS011;36346;48.280;14.292;2022-09-24T10:38:18;5.26;;;5.26;;
50417;SDS011;36346;48.280;14.292;2022-09-24T10:40:47;5.55;;;5.55;;
50417;SDS011;36346;48.280;14.292;2022-09-24T10:43:16;5.63;;;5.63;;
50417;SDS011;36346;48.280;14.292;2022-09-24T10:50:45;5.73;;;5.73;;
50417;SDS011;36346;48.280;14.292;2022-09-24T10:56:03;4.80;;;4.80;;
50417;SDS011;36346;48.280;14.292;2022-09-24T11:01:18;4.71;;;4.71;;
50417;SDS011;36346;48.280;14.292;2022-09-24T11:04:35;4.83;;;4.83;;
50417;SDS011;36346;48.280;14.292;2022-09-24T11:12:17;5.06;;;5.06;;
50417;SDS011;36346;48.280;14.292;2022-09-24T11:15:06;4.51;;;4.51;;
50417;SDS011;36346;48.280;14.292;2022-09-24T11:17:50;4.75;;;4.75;;
50417;SDS011;36346;48.280;14.292;2022-09-24T11:20:30;4.46;;;4.46;;
50417;SDS011;36346;48.280;14.292;2022-09-24T11:28:36;4.24;;;4.24;;
50417;SDS011;36346;48.280;14.292;2022-09-24T11:50:08;4.48;;;4.48;;
50417;SDS011;36346;48.280;14.292;2022-09-24T11:52:46;4.25;;;4.25;;
50417;SDS011;36346;48.280;14.292;2022-09-24T11:55:25;4.29;;;4.29;;
50417;SDS011;36346;48.280;14.292;2022-09-24T12:01:09;4.64;;;4.64;;
50417;SDS011;36346;48.280;14.292;2022-09-24T12:03:57;4.73;;;4.73;;
50417;SDS011;36346;48.280;14.292;2022-09-24T12:06:24;4.45;;;4.45;;
50417;SDS011;36346;48.280;14.292;2022-09-24T12:09:20;4.94;;;4.94;;
50417;SDS011;36346;48.280;14.292;2022-09-24T12:14:25;4.29;;;4.29;;
50417;SDS011;36346;48.280;14.292;2022-09-24T12:16:58;4.29;;;4.29;;
50417;SDS011;36346;48.280;14.292;2022-09-24T12:19:36;4.57;;;4.57;;
50417;SDS011;36346;48.280;14.292;2022-09-24T12:22:09;4.38;;;4.38;;
50417;SDS011;36346;48.280;14.292;2022-09-24T12:24:41;4.37;;;4.37;;
50417;SDS011;36346;48.280;14.292;2022-09-24T12:27:15;4.48;;;4.48;;
50417;SDS011;36346;48.280;14.292;2022-09-24T12:29:59;4.41;;;4.41;;
50417;SDS011;36346;48.280;14.292;2022-09-24T12:38:02;3.85;;;3.85;;
50417;SDS011;36346;48.280;14.292;2022-09-24T12:43:22;4.41;;;4.41;;
50417;SDS011;36346;48.280;14.292;2022-09-24T12:45:54;4.52;;;4.52;;
50417;SDS011;36346;48.280;14.292;2022-09-24T12:48:25;4.18;;;4.18;;
50417;SDS011;36346;48.280;14.292;2022-09-24T12:50:57;4.51;;;4.51;;
50417;SDS011;36346;48.280;14.292;2022-09-24T12:53:33;4.68;;;4.68;;
50417;SDS011;36346;48.280;14.292;2022-09-24T12:56:03;4.50;;;4.50;;
50417;SDS011;36346;48.280;14.292;2022-09-24T13:01:27;4.35;;;4.35;;
50417;SDS011;36346;48.280;14.292;2022-09-24T13:06:40;4.90;;;4.90;;
50417;SDS011;36346;48.280;14.292;2022-09-24T13:12:17;4.91;;;4.91;;
50417;SDS011;36346;48.280;14.292;2022-09-24T13:15:23;5.01;;;5.01;;
50417;SDS011;36346;48.280;14.292;2022-09-24T13:17:35;4.81;;;4.81;;
50417;SDS011;36346;48.280;14.292;2022-09-24T13:20:16;5.33;;;5.33;;
50417;SDS011;36346;48.280;14.292;2022-09-24T13:22:56;5.63;;;5.63;;
50417;SDS011;36346;48.280;14.292;2022-09-24T13:25:24;5.13;;;5.13;;
50417;SDS011;36346;48.280;14.292;2022-09-24T13:27:54;7.18;;;7.18;;
50417;SDS011;36346;48.280;14.292;2022-09-24T13:32:58;8.08;;;8.08;;
50417;SDS011;36346;48.280;14.292;2022-09-24T13:35:30;6.74;;;6.74;;
50417;SDS011;36346;48.280;14.292;2022-09-24T13:38:07;5.84;;;5.84;;
50417;SDS011;36346;48.280;14.292;2022-09-24T13:40:44;5.88;;;5.88;;
50417;SDS011;36346;48.280;14.292;2022-09-24T13:43:18;5.88;;;5.88;;
50417;SDS011;36346;48.280;14.292;2022-09-24T13:45:58;5.85;;;5.85;;
50417;SDS011;36346;48.280;14.292;2022-09-24T13:48:35;5.89;;;5.89;;
50417;SDS011;36346;48.280;14.292;2022-09-24T13:51:05;6.02;;;6.02;;
50417;SDS011;36346;48.280;14.292;2022-09-24T13:53:42;6.36;;;6.36;;
50417;SDS011;36346;48.280;14.292;2022-09-24T13:56:16;6.50;;;6.50;;
50417;SDS011;36346;48.280;14.292;2022-09-24T13:58:45;7.04;;;7.04;;
50417;SDS011;36346;48.280;14.292;2022-09-24T14:01:15;7.01;;;7.01;;
50417;SDS011;36346;48.280;14.292;2022-09-24T14:03:54;8.56;;;8.56;;
50417;SDS011;36346;48.280;14.292;2022-09-24T14:06:36;9.61;;;9.58;;
50417;SDS011;36346;48.280;14.292;2022-09-24T14:09:15;17.47;;;17.27;;
50417;SDS011;36346;48.280;14.292;2022-09-24T14:11:51;8.76;;;8.74;;
50417;SDS011;36346;48.280;14.292;2022-09-24T14:14:20;6.60;;;6.60;;
50417;SDS011;36346;48.280;14.292;2022-09-24T14:16:51;6.99;;;6.98;;
50417;SDS011;36346;48.280;14.292;2022-09-24T14:19:21;7.16;;;7.16;;
50417;SDS011;36346;48.280;14.292;2022-09-24T14:21:53;6.62;;;6.62;;
50417;SDS011;36346;48.280;14.292;2022-09-24T14:24:28;6.96;;;6.96;;
50417;SDS011;36346;48.280;14.292;2022-09-24T14:29:28;6.17;;;6.17;;
50417;SDS011;36346;48.280;14.292;2022-09-24T14:32:01;6.15;;;6.15;;
50417;SDS011;36346;48.280;14.292;2022-09-24T14:34:34;6.49;;;6.49;;
50417;SDS011;36346;48.280;14.292;2022-09-24T14:39:39;6.62;;;6.62;;
50417;SDS011;36346;48.280;14.292;2022-09-24T14:42:11;6.34;;;6.34;;
50417;SDS011;36346;48.280;14.292;2022-09-24T14:44:41;7.41;;;7.41;;
50417;SDS011;36346;48.280;14.292;2022-09-24T14:47:28;7.28;;;7.28;;
50417;SDS011;36346;48.280;14.292;2022-09-24T14:49:57;7.17;;;7.17;;
50417;SDS011;36346;48.280;14.292;2022-09-24T14:52:27;7.45;;;7.45;;
50417;SDS011;36346;48.280;14.292;2022-09-24T14:55:11;6.82;;;6.82;;
50417;SDS011;36346;48.280;14.292;2022-09-24T14:57:44;6.82;;;6.81;;
50417;SDS011;36346;48.280;14.292;2022-09-24T15:00:26;6.70;;;6.70;;
50417;SDS011;36346;48.280;14.292;2022-09-24T15:03:01;7.17;;;7.17;;
50417;SDS011;36346;48.280;14.292;2022-09-24T15:05:31;7.38;;;7.38;;
50417;SDS011;36346;48.280;14.292;2022-09-24T15:10:39;8.47;;;8.47;;
50417;SDS011;36346;48.280;14.292;2022-09-24T15:13:11;8.00;;;8.00;;
50417;SDS011;36346;48.280;14.292;2022-09-24T15:15:39;7.95;;;7.94;;
50417;SDS011;36346;48.280;14.292;2022-09-24T15:18:08;8.34;;;8.34;;
50417;SDS011;36346;48.280;14.292;2022-09-24T15:20:37;7.66;;;7.66;;
50417;SDS011;36346;48.280;14.292;2022-09-24T15:23:04;8.11;;;8.11;;
50417;SDS011;36346;48.280;14.292;2022-09-24T15:25:32;8.05;;;8.05;;
50417;SDS011;36346;48.280;14.292;2022-09-24T15:28:00;8.09;;;8.08;;
50417;SDS011;36346;48.280;14.292;2022-09-24T15:30:28;8.27;;;8.26;;
50417;SDS011;36346;48.280;14.292;2022-09-24T15:32:56;15.03;;;14.98;;
50417;SDS011;36346;48.280;14.292;2022-09-24T15:35:23;22.79;;;22.40;;
50417;SDS011;36346;48.280;14.292;2022-09-24T15:37:51;13.98;;;13.87;;
50417;SDS011;36346;48.280;14.292;2022-09-24T15:40:19;10.42;;;10.37;;
50417;SDS011;36346;48.280;14.292;2022-09-24T15:42:49;8.81;;;8.78;;
50417;SDS011;36346;48.280;14.292;2022-09-24T15:45:18;8.68;;;8.66;;
50417;SDS011;36346;48.280;14.292;2022-09-24T15:47:48;9.10;;;9.09;;
50417;SDS011;36346;48.280;14.292;2022-09-24T15:50:16;8.92;;;8.92;;
50417;SDS011;36346;48.280;14.292;2022-09-24T15:52:47;8.99;;;8.99;;
50417;SDS011;36346;48.280;14.292;2022-09-24T15:55:18;9.19;;;9.19;;
50417;SDS011;36346;48.280;14.292;2022-09-24T15:57:47;9.59;;;9.59;;
50417;SDS011;36346;48.280;14.292;2022-09-24T16:00:19;9.54;;;9.54;;
50417;SDS011;36346;48.280;14.292;2022-09-24T16:02:49;9.29;;;9.29;;
50417;SDS011;36346;48.280;14.292;2022-09-24T16:05:18;8.64;;;8.64;;
50417;SDS011;36346;48.280;14.292;2022-09-24T16:07:46;8.96;;;8.96;;
50417;SDS011;36346;48.280;14.292;2022-09-24T16:10:14;9.17;;;9.17;;
50417;SDS011;36346;48.280;14.292;2022-09-24T16:12:42;9.30;;;9.30;;
50417;SDS011;36346;48.280;14.292;2022-09-24T16:15:14;8.20;;;8.19;;
50417;SDS011;36346;48.280;14.292;2022-09-24T16:17:42;8.53;;;8.53;;
50417;SDS011;36346;48.280;14.292;2022-09-24T16:20:09;8.83;;;8.83;;
50417;SDS011;36346;48.280;14.292;2022-09-24T16:22:37;8.72;;;8.72;;
50417;SDS011;36346;48.280;14.292;2022-09-24T16:25:05;8.64;;;8.64;;
50417;SDS011;36346;48.280;14.292;2022-09-24T16:27:32;8.75;;;8.75;;
50417;SDS011;36346;48.280;14.292;2022-09-24T16:30:03;8.36;;;8.36;;
50417;SDS011;36346;48.280;14.292;2022-09-24T16:32:31;8.32;;;8.32;;
50417;SDS011;36346;48.280;14.292;2022-09-24T16:34:58;8.27;;;8.27;;
50417;SDS011;36346;48.280;14.292;2022-09-24T16:37:26;9.08;;;9.08;;
50417;SDS011;36346;48.280;14.292;2022-09-24T16:39:54;9.66;;;9.66;;
50417;SDS011;36346;48.280;14.292;2022-09-24T16:42:22;11.06;;;11.05;;
50417;SDS011;36346;48.280;14.292;2022-09-24T16:44:52;12.74;;;12.65;;
50417;SDS011;36346;48.280;14.292;2022-09-24T16:47:20;16.26;;;16.12;;